< Typhoon 195718 1957 Season Typhoon 195720 >
Typhoon 195719 (JUDY)
General InformationTrack Information on Google Maps || Disaster Info.ResourceGoogle EarthGE AnimationAtom FeedGeoJSON
Detalied Best Track (Time Zone = UTC)
Year Month Day Hour Lat. Long. Pressure (hPa) Wind (kt) Class Image
1957 10 19 18 17.5 155.0 1000 0 2 No
1957 10 20 00 17.0 154.0 1000 0 2 No
1957 10 20 06 16.5 153.0 1000 0 2 No
1957 10 20 12 16.2 152.0 1000 0 2 No
1957 10 20 18 15.8 151.0 998 0 2 No
1957 10 21 00 15.5 150.0 998 0 2 No
1957 10 21 06 15.4 148.8 995 0 9 No
1957 10 21 12 15.4 147.4 990 0 9 No
1957 10 21 18 15.4 146.0 985 0 9 No
1957 10 22 00 15.6 144.4 980 0 9 No
1957 10 22 06 15.8 143.2 970 0 9 No
1957 10 22 12 16.4 141.8 970 0 9 No
1957 10 22 18 17.1 140.2 970 0 9 No
1957 10 23 00 17.7 138.5 970 0 9 No
1957 10 23 06 18.3 137.6 965 0 9 No
1957 10 23 12 18.5 136.0 965 0 9 No
1957 10 23 18 19.4 134.6 965 0 9 No
1957 10 24 00 20.5 133.3 965 0 9 No
1957 10 24 06 22.3 132.8 965 0 9 No
1957 10 24 12 24.5 134.4 960 0 9 No
1957 10 24 18 26.3 134.8 960 0 9 No
1957 10 25 00 28.2 135.7 965 0 9 No
1957 10 25 06 30.0 137.5 970 0 9 No
1957 10 25 12 31.1 138.6 980 0 9 No
1957 10 25 18 31.8 139.7 980 0 9 No
1957 10 26 00 32.5 141.5 985 0 9 No
1957 10 26 06 33.5 144.0 985 0 9 No
1957 10 26 12 33.8 146.1 990 0 9 No
1957 10 26 18 33.9 148.0 990 0 9 No
1957 10 27 00 34.0 150.0 995 0 6 No
1957 10 27 06 34.0 152.0 996 0 6 No
1957 10 27 12 34.0 154.0 1000 0 6 No
1957 10 27 18 34.0 156.0 1002 0 6 No
1957 10 28 00 34.8 158.5 1002 0 6 No
1957 10 28 06 35.5 162.5 1000 0 6 No
1957 10 28 12 36.0 167.0 1000 0 6 No
1957 10 28 18 37.5 169.5 996 0 6 No
1957 10 29 00 38.5 174.0 994 0 6 No
1957 10 29 06 40.8 176.5 994 0 6 No
1957 10 29 12 41.8 179.0 996 0 6 No
1957 10 29 18 41.5 181.5 996 0 6 No
Japan Meteorological Agency Best Track Data | Correction Date : 1990-10-17
< Typhoon 195718 1957 Season Typhoon 195720 >

Help